New Providence, NJ (07974)

6:12 AM EST on January 24, 2017 (GMT -0500)
New Providence | | Change Station
Active Advisory: Small Craft Advisory

Elev 226 ft 40.70 °N, 74.40 °W | Updated 27 seconds ago

Overcast
Overcast
35.1 °F
Feels Like 29 °F
N
7.6
Wind Variable Wind from ENE
Gusts 9.8 mph

Today
High -- | Low -- °F
--% Chance of Precip.
Yesterday
High -- | Low -- °F
Precip. -- in
Pressure 29.39 in
Visibility 3.0 miles
Clouds Mostly Cloudy 1300 ft
Overcast 1800 ft
Windchill 29 °F
Dew Point 33 °F
Humidity 93%
Rainfall 0.40 in
Snow Depth Not available.
7:14 AM 5:05 PM
Waning Crescent, 12% visible
METAR KMMU 241055Z AUTO 01009G17KT 3SM DZ BKN013 OVC018 01/01 A2939 RMK AO2
Pressure 29.39 in
Visibility 3.0 miles
Clouds Mostly Cloudy 1300 ft
Overcast 1800 ft
Windchill 29 °F
Dew Point 33 °F
Humidity 93%
Rainfall 0.40 in
Snow Depth Not available.
7:14 AM 5:05 PM
Waning Crescent, 12% visible
METAR KMMU 241055Z AUTO 01009G17KT 3SM DZ BKN013 OVC018 01/01 A2939 RMK AO2

Get Your Daily Forecast Email!

Thanks for signing up!

Be on the lookout for a verification email in your inbox.

You'll start receiving the daily forecast at 8 AM.

×

10-Day Weather Forecast

Almanac

Astronomy

Jan. 24, 2017 Rise Set
Actual Time
Civil Twilight
Nautical Twilight
Astronomical Twilight
Moon
Length of Visible Light
Length of Day
Tomorrow will be .
, % of the Moon is Illuminated

Today's Extremes

State Highs State Lows

Community

WunderPhotos

Upload Photos

1,962,540 photos uploaded!

WunderBlog® & News

Nearby

Air Quality

  Air Quality AQ Index Pollutant
Not available.

Snow Depth

Station Depth Elevation

Earthquake Activity

City Distance Mag. Time & Date
Minimum magnitude displayed is 2.5.

Coastal Water Temperatures

Place Temperature

Stations

Nearby Weather Stations

Station Location Temp. Windchill Dew Point Humidity Wind Precip. Elev Updated Type
                   

Watches & Warnings

Small Craft Advisory
Issued: 5:46 AM EST Jan. 24, 2017 – National Weather Service

... Small Craft Advisory in effect until 6 am EST Wednesday...
... Gale Warning is cancelled...

The National Weather Service in Upton has issued a Small Craft
Advisory... which is in effect until 6 am EST Wednesday. The Gale
Warning has been cancelled.

* Winds and seas... north winds 20 to 30 kt. Occasional gusts up to
35 kt early this morning. Seas 4 to 8 feet across the Long
Island Sound.

Precautionary/preparedness actions...

A Small Craft Advisory means that sustained wind speeds or
frequent gusts of 25 to 33 kt and/or seas of 5 ft or higher are
expected or occurring... and hazardous to small craft.
Inexperienced mariners... especially those operating smaller
vessels... should avoid navigating in these conditions.